createdAt,value
2019-01-27T00:00:13.912Z,88.90
2019-01-27T00:00:38.350Z,88.90
2019-01-27T00:01:02.509Z,88.90
2019-01-27T00:01:26.009Z,88.80
2019-01-27T00:01:48.910Z,88.70
2019-01-27T00:02:12.771Z,88.80
2019-01-27T00:02:35.396Z,89.20
2019-01-27T00:02:58.069Z,89.30
2019-01-27T00:03:21.470Z,89.20
2019-01-27T00:03:44.192Z,89.50
2019-01-27T00:04:06.772Z,89.70
2019-01-27T00:04:29.290Z,90.00
2019-01-27T00:04:52.482Z,89.30
2019-01-27T00:05:15.508Z,89.50
2019-01-27T00:05:38.070Z,89.40
2019-01-27T00:06:00.750Z,89.50
2019-01-27T00:06:23.450Z,89.30
2019-01-27T00:06:46.170Z,89.40
2019-01-27T00:07:08.951Z,90.10
2019-01-27T00:07:31.588Z,90.10
2019-01-27T00:07:54.240Z,90.20
2019-01-27T00:08:18.430Z,90.00
2019-01-27T00:08:41.024Z,90.10
2019-01-27T00:09:05.411Z,90.10
2019-01-27T00:09:28.064Z,90.10
2019-01-27T00:09:50.770Z,90.00
2019-01-27T00:10:13.891Z,90.30
2019-01-27T00:10:36.544Z,90.40
2019-01-27T00:10:59.230Z,90.20
2019-01-27T00:11:21.890Z,90.20
2019-01-27T00:11:44.670Z,90.40
2019-01-27T00:12:07.424Z,90.20
2019-01-27T00:12:30.192Z,90.50
2019-01-27T00:12:52.770Z,90.50
2019-01-27T00:13:16.225Z,90.40
2019-01-27T00:13:38.849Z,90.30
2019-01-27T00:14:01.538Z,90.10
2019-01-27T00:14:24.590Z,90.20
2019-01-27T00:14:47.427Z,90.10
2019-01-27T00:15:10.388Z,90.10
2019-01-27T00:15:33.590Z,90.10
2019-01-27T00:15:56.350Z,90.30
2019-01-27T00:16:18.944Z,90.30
2019-01-27T00:16:41.460Z,90.70
2019-01-27T00:17:03.999Z,90.30
2019-01-27T00:17:26.752Z,90.20
2019-01-27T00:17:49.590Z,90.30
2019-01-27T00:18:12.243Z,90.20
2019-01-27T00:18:34.944Z,90.10
2019-01-27T00:18:57.710Z,90.00
2019-01-27T00:19:20.384Z,90.00
2019-01-27T00:19:43.010Z,90.20
2019-01-27T00:20:05.570Z,90.10
2019-01-27T00:20:28.590Z,90.00
2019-01-27T00:20:51.210Z,90.00
2019-01-27T00:21:14.270Z,90.20
2019-01-27T00:21:37.412Z,90.00
2019-01-27T00:22:00.065Z,90.00
2019-01-27T00:22:22.650Z,90.00
2019-01-27T00:22:45.430Z,89.80
2019-01-27T00:23:08.169Z,90.00
2019-01-27T00:23:30.852Z,89.60
2019-01-27T00:23:53.470Z,89.70
2019-01-27T00:24:16.110Z,90.00
2019-01-27T00:24:38.890Z,90.00
2019-01-27T00:25:01.410Z,89.80
2019-01-27T00:25:24.519Z,90.00
2019-01-27T00:25:47.250Z,90.00
2019-01-27T00:26:10.350Z,90.20
2019-01-27T00:26:33.010Z,90.20
2019-01-27T00:26:55.711Z,90.20
2019-01-27T00:27:18.450Z,90.20
2019-01-27T00:27:42.898Z,90.00
2019-01-27T00:28:05.650Z,90.10
2019-01-27T00:28:28.371Z,90.30
2019-01-27T00:28:51.150Z,90.10
2019-01-27T00:29:13.730Z,90.10
2019-01-27T00:29:36.384Z,90.00
2019-01-27T00:29:58.990Z,90.10
2019-01-27T00:30:22.190Z,90.20
2019-01-27T00:30:44.890Z,90.10
2019-01-27T00:31:07.590Z,90.00
2019-01-27T00:31:30.291Z,90.10
2019-01-27T00:31:52.910Z,90.30
2019-01-27T00:32:15.633Z,90.70
2019-01-27T00:32:38.670Z,90.90
2019-01-27T00:33:01.390Z,91.00
2019-01-27T00:33:23.971Z,90.90
2019-01-27T00:33:46.624Z,90.90
2019-01-27T00:34:10.130Z,90.70
2019-01-27T00:34:33.170Z,90.60
2019-01-27T00:34:56.379Z,90.80
2019-01-27T00:35:19.090Z,90.80
2019-01-27T00:35:42.230Z,90.60
2019-01-27T00:36:04.810Z,90.60
2019-01-27T00:36:27.450Z,90.40
2019-01-27T00:36:50.530Z,90.10
2019-01-27T00:37:13.150Z,90.30
2019-01-27T00:37:35.710Z,90.10
2019-01-27T00:37:58.391Z,90.00
2019-01-27T00:38:21.050Z,89.40
2019-01-27T00:38:43.772Z,89.60
2019-01-27T00:39:06.850Z,89.30
2019-01-27T00:39:29.550Z,89.00
2019-01-27T00:39:52.370Z,89.50
2019-01-27T00:40:15.102Z,90.10
2019-01-27T00:40:38.190Z,89.80
2019-01-27T00:41:00.837Z,89.80
2019-01-27T00:41:23.474Z,89.80
2019-01-27T00:41:46.010Z,89.80
2019-01-27T00:42:08.706Z,89.80
2019-01-27T00:42:31.424Z,89.70
2019-01-27T00:42:54.044Z,89.20
2019-01-27T00:43:16.590Z,89.20
2019-01-27T00:43:39.348Z,89.70
2019-01-27T00:44:01.937Z,89.30
2019-01-27T00:44:24.709Z,89.00
2019-01-27T00:44:47.348Z,89.60
2019-01-27T00:45:10.110Z,89.90
2019-01-27T00:45:32.769Z,89.40
2019-01-27T00:45:55.370Z,89.60
2019-01-27T00:46:18.090Z,90.10
2019-01-27T00:46:40.789Z,90.10
2019-01-27T00:47:03.289Z,89.70
2019-01-27T00:47:25.930Z,89.00
2019-01-27T00:47:48.543Z,88.80
2019-01-27T00:48:11.259Z,88.80
2019-01-27T00:48:33.984Z,89.40
2019-01-27T00:48:56.705Z,89.20
2019-01-27T00:49:19.311Z,89.40
2019-01-27T00:49:41.930Z,89.50
2019-01-27T00:50:04.463Z,89.90
2019-01-27T00:50:27.351Z,90.10
2019-01-27T00:50:49.930Z,89.40
2019-01-27T00:51:12.710Z,88.80
2019-01-27T00:51:35.350Z,88.50
2019-01-27T00:51:57.970Z,88.90
2019-01-27T00:52:20.653Z,89.60
2019-01-27T00:52:43.266Z,89.70
2019-01-27T00:53:05.910Z,89.80
2019-01-27T00:53:29.231Z,89.60
2019-01-27T00:53:51.950Z,89.60
2019-01-27T00:54:14.739Z,88.90
2019-01-27T00:54:37.789Z,88.70
2019-01-27T00:55:00.430Z,88.50
2019-01-27T00:55:23.450Z,88.40
2019-01-27T00:55:46.189Z,88.00
2019-01-27T00:56:09.310Z,87.80
2019-01-27T00:56:32.387Z,88.30
2019-01-27T00:56:55.104Z,88.00
2019-01-27T00:57:17.669Z,88.20
2019-01-27T00:57:40.365Z,87.80
2019-01-27T00:58:02.881Z,88.00
2019-01-27T00:58:25.429Z,88.00
2019-01-27T00:58:48.691Z,88.00
2019-01-27T00:59:11.330Z,88.70
2019-01-27T00:59:33.914Z,89.30
2019-01-27T00:59:56.730Z,89.10
2019-01-27T01:00:19.510Z,88.70
2019-01-27T01:00:42.092Z,88.40
2019-01-27T01:01:04.670Z,88.00
2019-01-27T01:01:27.234Z,88.50
2019-01-27T01:01:49.990Z,88.20
2019-01-27T01:02:13.049Z,88.10
2019-01-27T01:02:35.551Z,88.50
2019-01-27T01:02:58.473Z,88.90
2019-01-27T01:03:21.248Z,89.20
2019-01-27T01:03:43.930Z,88.90
2019-01-27T01:04:06.631Z,89.10
2019-01-27T01:04:31.171Z,89.50
2019-01-27T01:04:53.730Z,89.50
2019-01-27T01:05:16.350Z,89.30
2019-01-27T01:05:39.409Z,89.00
2019-01-27T01:06:01.990Z,89.20
2019-01-27T01:06:24.778Z,88.70
2019-01-27T01:06:47.471Z,88.90
2019-01-27T01:07:10.670Z,89.30
2019-01-27T01:07:33.469Z,89.50
2019-01-27T01:07:56.193Z,88.70
2019-01-27T01:08:18.892Z,88.80
2019-01-27T01:08:41.614Z,88.90
2019-01-27T01:09:04.991Z,89.40
2019-01-27T01:09:27.744Z,89.30
2019-01-27T01:09:50.784Z,89.20
2019-01-27T01:10:13.410Z,89.40
2019-01-27T01:10:36.270Z,88.80
2019-01-27T01:11:01.918Z,89.20
2019-01-27T01:11:24.570Z,88.90
2019-01-27T01:11:47.612Z,88.80
2019-01-27T01:12:10.350Z,89.00
2019-01-27T01:12:33.309Z,89.10
2019-01-27T01:12:56.010Z,89.20
2019-01-27T01:13:18.670Z,89.10
2019-01-27T01:13:41.870Z,89.30
2019-01-27T01:14:04.544Z,89.30
2019-01-27T01:14:27.229Z,88.60
2019-01-27T01:14:49.890Z,88.40
2019-01-27T01:15:13.290Z,88.40
2019-01-27T01:15:35.990Z,88.30
2019-01-27T01:15:58.784Z,88.30
2019-01-27T01:16:21.310Z,87.80
2019-01-27T01:16:43.902Z,87.60
2019-01-27T01:17:06.770Z,87.80
2019-01-27T01:17:29.344Z,87.70
2019-01-27T01:17:52.131Z,87.70
2019-01-27T01:18:14.770Z,87.90
2019-01-27T01:18:37.570Z,87.80
2019-01-27T01:19:00.224Z,88.10
2019-01-27T01:19:22.849Z,88.30
2019-01-27T01:19:45.665Z,88.40
2019-01-27T01:20:08.349Z,88.60
2019-01-27T01:20:31.370Z,88.90
2019-01-27T01:20:54.791Z,88.60
2019-01-27T01:21:17.430Z,88.60
2019-01-27T01:21:40.116Z,88.50
2019-01-27T01:22:02.631Z,88.80
2019-01-27T01:22:25.344Z,88.70
2019-01-27T01:22:48.065Z,88.60
2019-01-27T01:23:10.749Z,88.60
2019-01-27T01:23:33.504Z,88.60
2019-01-27T01:23:56.167Z,88.40
2019-01-27T01:24:18.750Z,88.60
2019-01-27T01:24:41.298Z,88.70
2019-01-27T01:25:04.009Z,88.70
2019-01-27T01:25:26.769Z,88.70
2019-01-27T01:25:49.490Z,88.70
2019-01-27T01:26:12.190Z,88.70
2019-01-27T01:26:34.810Z,88.70
2019-01-27T01:26:57.458Z,88.20
2019-01-27T01:27:20.064Z,87.80
2019-01-27T01:27:42.710Z,87.80
2019-01-27T01:28:05.270Z,87.60
2019-01-27T01:28:27.990Z,88.00
2019-01-27T01:28:50.670Z,88.20
2019-01-27T01:29:13.510Z,88.00
2019-01-27T01:29:36.128Z,87.70
2019-01-27T01:29:58.990Z,87.60
2019-01-27T01:30:21.790Z,87.70
2019-01-27T01:30:44.409Z,87.70
2019-01-27T01:31:07.010Z,87.70
2019-01-27T01:31:29.670Z,88.00
2019-01-27T01:31:52.470Z,88.40
2019-01-27T01:32:15.050Z,88.60
2019-01-27T01:32:37.792Z,88.70
2019-01-27T01:33:01.169Z,89.00
2019-01-27T01:33:23.869Z,88.90
2019-01-27T01:33:46.623Z,89.30
2019-01-27T01:34:09.289Z,89.80
2019-01-27T01:34:32.110Z,90.00
2019-01-27T01:34:54.638Z,89.70
2019-01-27T01:35:17.591Z,89.20
2019-01-27T01:35:40.710Z,89.00
2019-01-27T01:36:03.230Z,88.80
2019-01-27T01:36:25.810Z,88.90
2019-01-27T01:36:49.270Z,88.60
2019-01-27T01:37:11.929Z,88.90
2019-01-27T01:37:34.569Z,89.30
2019-01-27T01:37:57.131Z,89.10
2019-01-27T01:38:19.811Z,89.00
2019-01-27T01:38:42.570Z,89.10
2019-01-27T01:39:05.210Z,88.90
2019-01-27T01:39:28.110Z,89.00
2019-01-27T01:39:50.830Z,88.60
2019-01-27T01:40:13.870Z,88.60
2019-01-27T01:40:36.490Z,88.70
2019-01-27T01:40:59.609Z,88.70
2019-01-27T01:41:22.710Z,88.90
2019-01-27T01:41:45.430Z,88.90
2019-01-27T01:42:08.384Z,89.40
2019-01-27T01:42:31.557Z,89.80
2019-01-27T01:42:54.129Z,89.90
2019-01-27T01:43:17.188Z,90.10
2019-01-27T01:43:40.009Z,89.80
2019-01-27T01:44:02.477Z,89.60
2019-01-27T01:44:25.108Z,89.30
2019-01-27T01:44:47.749Z,89.30
2019-01-27T01:45:10.464Z,89.30
2019-01-27T01:45:32.989Z,89.20
2019-01-27T01:45:55.583Z,88.70
2019-01-27T01:46:18.250Z,88.50
2019-01-27T01:46:40.830Z,88.50
2019-01-27T01:47:03.350Z,88.50
2019-01-27T01:47:25.899Z,88.60
2019-01-27T01:47:48.864Z,88.60
2019-01-27T01:48:11.550Z,88.40
2019-01-27T01:48:34.249Z,88.80
2019-01-27T01:48:56.954Z,89.10
2019-01-27T01:49:20.062Z,89.40
2019-01-27T01:49:45.490Z,89.40
2019-01-27T01:50:08.130Z,89.70
2019-01-27T01:50:30.811Z,89.90
2019-01-27T01:50:53.431Z,90.10
2019-01-27T01:51:16.213Z,90.20
2019-01-27T01:51:38.943Z,90.20
2019-01-27T01:52:01.611Z,90.10
2019-01-27T01:52:24.273Z,90.10
2019-01-27T01:52:46.949Z,90.10
2019-01-27T01:53:09.631Z,90.10
2019-01-27T01:53:32.269Z,90.10
2019-01-27T01:53:54.990Z,90.40
2019-01-27T01:54:17.649Z,90.50
2019-01-27T01:54:40.384Z,90.50
2019-01-27T01:55:02.910Z,90.70
2019-01-27T01:55:25.670Z,90.70
2019-01-27T01:55:50.089Z,90.70
2019-01-27T01:56:12.670Z,90.50
2019-01-27T01:56:35.350Z,90.10
2019-01-27T01:56:58.011Z,90.00
2019-01-27T01:57:21.009Z,90.00
2019-01-27T01:57:43.729Z,90.00
2019-01-27T01:58:06.463Z,90.20
2019-01-27T01:58:29.130Z,90.30
2019-01-27T01:58:51.712Z,90.30
2019-01-27T01:59:14.348Z,90.40
2019-01-27T01:59:36.910Z,90.40
2019-01-27T01:59:59.449Z,90.30
2019-01-27T02:00:22.149Z,90.50
2019-01-27T02:00:45.130Z,90.90
2019-01-27T02:01:08.790Z,90.70
2019-01-27T02:01:31.350Z,90.50
2019-01-27T02:01:53.991Z,90.50
2019-01-27T02:02:17.290Z,90.50
2019-01-27T02:02:40.572Z,90.60
2019-01-27T02:03:03.109Z,90.70
2019-01-27T02:03:25.823Z,90.80
2019-01-27T02:03:48.590Z,90.80
2019-01-27T02:04:11.390Z,90.70
2019-01-27T02:04:34.050Z,90.50
2019-01-27T02:04:56.617Z,90.40
2019-01-27T02:05:19.309Z,90.20
2019-01-27T02:05:41.949Z,90.20
2019-01-27T02:06:04.489Z,90.30
2019-01-27T02:06:27.078Z,90.30
2019-01-27T02:06:49.709Z,90.20
2019-01-27T02:07:12.290Z,90.10
2019-01-27T02:07:34.910Z,90.20
2019-01-27T02:07:57.469Z,90.30
2019-01-27T02:08:20.449Z,90.40
2019-01-27T02:08:43.210Z,90.30
2019-01-27T02:09:07.374Z,90.10
2019-01-27T02:09:30.071Z,90.10
2019-01-27T02:09:52.750Z,90.00
2019-01-27T02:10:15.370Z,90.10
2019-01-27T02:10:38.110Z,90.20
2019-01-27T02:11:00.770Z,90.20
2019-01-27T02:11:23.371Z,90.00
2019-01-27T02:11:45.970Z,90.00
2019-01-27T02:12:08.593Z,90.60
2019-01-27T02:12:31.269Z,90.30
2019-01-27T02:12:54.132Z,90.40
2019-01-27T02:13:16.670Z,90.50
2019-01-27T02:13:39.264Z,90.40
2019-01-27T02:14:02.191Z,90.40
2019-01-27T02:14:24.792Z,90.30
2019-01-27T02:14:47.418Z,90.10
2019-01-27T02:15:10.419Z,90.00
2019-01-27T02:15:33.069Z,89.90
2019-01-27T02:15:55.869Z,89.80
2019-01-27T02:16:18.624Z,90.00
2019-01-27T02:16:41.304Z,90.00
2019-01-27T02:17:03.813Z,89.80
2019-01-27T02:17:26.469Z,90.00
2019-01-27T02:17:49.088Z,89.80
2019-01-27T02:18:11.790Z,90.00
2019-01-27T02:18:34.610Z,90.00
2019-01-27T02:18:57.344Z,90.10
2019-01-27T02:19:20.349Z,90.20
2019-01-27T02:19:43.103Z,90.30
2019-01-27T02:20:05.770Z,90.30
2019-01-27T02:20:28.490Z,90.20
2019-01-27T02:20:51.146Z,90.00
2019-01-27T02:21:13.869Z,90.10
2019-01-27T02:21:36.469Z,89.80
2019-01-27T02:21:59.050Z,90.00
2019-01-27T02:22:21.824Z,90.10
2019-01-27T02:22:44.534Z,90.10
2019-01-27T02:23:07.270Z,90.10
2019-01-27T02:23:30.050Z,90.20
2019-01-27T02:23:53.150Z,90.40
2019-01-27T02:24:15.729Z,90.40
2019-01-27T02:24:38.290Z,90.30
2019-01-27T02:25:01.050Z,90.20
2019-01-27T02:25:24.230Z,90.00
2019-01-27T02:25:46.949Z,90.00
2019-01-27T02:26:09.570Z,89.90
2019-01-27T02:26:32.510Z,89.60
2019-01-27T02:26:55.209Z,89.50
2019-01-27T02:27:17.850Z,89.50
2019-01-27T02:27:41.917Z,89.90
2019-01-27T02:28:04.570Z,90.00
2019-01-27T02:28:27.310Z,90.00
2019-01-27T02:28:49.849Z,90.10
2019-01-27T02:29:12.430Z,90.10
2019-01-27T02:29:35.099Z,90.30
2019-01-27T02:29:57.989Z,90.40
2019-01-27T02:30:20.763Z,90.50
2019-01-27T02:30:43.372Z,90.30
2019-01-27T02:31:06.050Z,90.20
2019-01-27T02:31:28.911Z,90.00
2019-01-27T02:31:52.012Z,90.20
2019-01-27T02:32:14.709Z,90.10
2019-01-27T02:32:37.351Z,90.30
2019-01-27T02:32:59.970Z,90.20
2019-01-27T02:33:22.623Z,90.30
2019-01-27T02:33:46.790Z,90.30
2019-01-27T02:34:09.568Z,90.20
2019-01-27T02:34:32.149Z,90.20
2019-01-27T02:34:54.789Z,90.30
2019-01-27T02:35:17.504Z,90.40
2019-01-27T02:35:40.511Z,90.40
2019-01-27T02:36:02.981Z,90.50
2019-01-27T02:36:25.949Z,90.50
2019-01-27T02:36:48.550Z,90.30
2019-01-27T02:37:11.460Z,90.20
2019-01-27T02:37:34.572Z,90.00
2019-01-27T02:37:57.150Z,90.10
2019-01-27T02:38:19.710Z,89.90
2019-01-27T02:38:42.302Z,90.00
2019-01-27T02:39:05.344Z,90.00
2019-01-27T02:39:28.063Z,90.00
2019-01-27T02:39:50.700Z,90.00
2019-01-27T02:40:13.311Z,90.10
2019-01-27T02:40:35.903Z,89.90
2019-01-27T02:40:58.651Z,89.90
2019-01-27T02:41:21.272Z,89.60
2019-01-27T02:41:43.870Z,90.00
2019-01-27T02:42:06.450Z,89.80
2019-01-27T02:42:29.630Z,90.00
2019-01-27T02:42:52.210Z,90.00
2019-01-27T02:43:15.690Z,90.10
2019-01-27T02:43:38.310Z,90.20
2019-01-27T02:44:01.050Z,90.20
2019-01-27T02:44:23.652Z,90.20
2019-01-27T02:44:46.252Z,90.20
2019-01-27T02:45:08.872Z,90.10
2019-01-27T02:45:31.571Z,90.20
2019-01-27T02:45:54.348Z,90.20
2019-01-27T02:46:16.928Z,90.20
2019-01-27T02:46:39.489Z,90.00
2019-01-27T02:47:02.045Z,90.00
2019-01-27T02:47:24.630Z,89.80
2019-01-27T02:47:47.264Z,90.00
2019-01-27T02:48:10.030Z,90.00
2019-01-27T02:48:32.704Z,90.20
2019-01-27T02:48:55.469Z,90.10
2019-01-27T02:49:18.131Z,90.20
2019-01-27T02:49:40.790Z,90.10
2019-01-27T02:50:03.430Z,90.00
2019-01-27T02:50:26.069Z,90.00
2019-01-27T02:50:48.704Z,90.30
2019-01-27T02:51:11.265Z,90.20
2019-01-27T02:51:33.952Z,90.40
2019-01-27T02:51:56.730Z,90.60
2019-01-27T02:52:19.263Z,90.70
2019-01-27T02:52:41.983Z,90.70
2019-01-27T02:53:04.609Z,90.70
2019-01-27T02:53:27.194Z,90.80
2019-01-27T02:53:49.872Z,90.70
2019-01-27T02:54:14.139Z,90.70
2019-01-27T02:54:38.541Z,90.60
2019-01-27T02:55:01.279Z,90.50
2019-01-27T02:55:24.169Z,90.30
2019-01-27T02:55:46.910Z,90.30
2019-01-27T02:56:09.985Z,90.20
2019-01-27T02:56:32.703Z,90.00
2019-01-27T02:56:55.312Z,90.00
2019-01-27T02:57:18.550Z,90.00
2019-01-27T02:57:41.110Z,90.00
2019-01-27T02:58:03.616Z,89.90
2019-01-27T02:58:26.304Z,89.90
2019-01-27T02:58:49.023Z,89.80
2019-01-27T02:59:11.710Z,89.60
2019-01-27T02:59:34.790Z,89.80
2019-01-27T02:59:57.471Z,89.80
2019-01-27T03:00:20.190Z,89.60
2019-01-27T03:00:42.750Z,89.60
2019-01-27T03:01:05.569Z,89.70
2019-01-27T03:01:28.551Z,90.00
2019-01-27T03:01:51.170Z,90.00
2019-01-27T03:02:13.912Z,90.00
2019-01-27T03:02:36.478Z,89.60
2019-01-27T03:02:59.229Z,89.10
2019-01-27T03:03:21.890Z,89.10
2019-01-27T03:03:44.491Z,89.10
2019-01-27T03:04:07.149Z,89.10
2019-01-27T03:04:29.825Z,89.20
2019-01-27T03:04:53.189Z,89.30
2019-01-27T03:05:17.380Z,89.60
2019-01-27T03:05:47.309Z,89.50
2019-01-27T03:06:11.478Z,89.60
2019-01-27T03:06:41.690Z,89.90
2019-01-27T03:07:05.991Z,89.60
2019-01-27T03:07:30.710Z,89.80
2019-01-27T03:07:53.490Z,89.90
2019-01-27T03:08:16.490Z,90.20
2019-01-27T03:08:39.211Z,90.30
2019-01-27T03:09:03.309Z,90.40
2019-01-27T03:09:26.098Z,90.20
2019-01-27T03:09:48.990Z,90.20
2019-01-27T03:10:11.839Z,90.70
2019-01-27T03:10:34.509Z,90.40
2019-01-27T03:10:57.611Z,90.20
2019-01-27T03:11:20.231Z,90.50
2019-01-27T03:11:49.765Z,90.70
2019-01-27T03:12:12.430Z,90.80
2019-01-27T03:12:35.129Z,90.70
2019-01-27T03:12:57.830Z,90.60
2019-01-27T03:13:20.551Z,90.50
2019-01-27T03:13:43.618Z,90.40
2019-01-27T03:14:06.590Z,90.40
2019-01-27T03:14:29.250Z,90.30
2019-01-27T03:14:52.210Z,90.30
2019-01-27T03:15:16.472Z,90.30
2019-01-27T03:15:39.091Z,90.50
2019-01-27T03:16:01.784Z,90.40
2019-01-27T03:16:24.383Z,90.30
2019-01-27T03:16:47.590Z,90.30
2019-01-27T03:17:12.410Z,90.50
2019-01-27T03:17:35.132Z,90.30
2019-01-27T03:17:58.231Z,90.20
2019-01-27T03:18:20.971Z,90.10
2019-01-27T03:18:43.591Z,90.00
2019-01-27T03:19:06.330Z,90.00
2019-01-27T03:19:29.025Z,90.10
2019-01-27T03:19:51.613Z,90.10
2019-01-27T03:20:14.194Z,90.00
2019-01-27T03:20:37.503Z,90.00
2019-01-27T03:21:00.251Z,90.00
2019-01-27T03:21:22.943Z,90.20
2019-01-27T03:21:45.609Z,90.40
2019-01-27T03:22:08.373Z,90.30
2019-01-27T03:22:30.930Z,90.20
2019-01-27T03:22:53.710Z,90.30
2019-01-27T03:23:16.450Z,90.30
2019-01-27T03:23:39.050Z,90.40
2019-01-27T03:24:01.662Z,90.60
2019-01-27T03:24:24.410Z,90.40
2019-01-27T03:24:47.107Z,90.60
2019-01-27T03:25:09.850Z,90.10
2019-01-27T03:25:32.590Z,90.10
2019-01-27T03:25:55.584Z,90.30
2019-01-27T03:26:18.350Z,90.30
2019-01-27T03:26:41.510Z,90.30
2019-01-27T03:27:04.067Z,90.10
2019-01-27T03:27:26.784Z,90.10
2019-01-27T03:27:49.550Z,90.00
2019-01-27T03:28:12.569Z,90.00
2019-01-27T03:28:35.292Z,90.10
2019-01-27T03:28:57.986Z,90.30
2019-01-27T03:29:20.759Z,90.20
2019-01-27T03:29:43.306Z,90.10
2019-01-27T03:30:06.352Z,90.10
2019-01-27T03:30:29.153Z,90.20
2019-01-27T03:30:51.907Z,90.30
2019-01-27T03:31:14.593Z,90.20
2019-01-27T03:31:37.346Z,90.20
2019-01-27T03:32:00.498Z,90.10
2019-01-27T03:32:23.343Z,90.10
2019-01-27T03:32:46.067Z,90.00
2019-01-27T03:33:08.672Z,89.80
2019-01-27T03:33:31.449Z,89.50
2019-01-27T03:33:54.192Z,89.30
2019-01-27T03:34:17.026Z,89.80
2019-01-27T03:34:39.830Z,90.00
2019-01-27T03:35:02.295Z,89.90
2019-01-27T03:35:25.290Z,90.10
2019-01-27T03:35:47.850Z,90.00
2019-01-27T03:36:10.450Z,90.00
2019-01-27T03:36:33.012Z,89.90
2019-01-27T03:36:55.744Z,90.10
2019-01-27T03:37:18.569Z,90.00
2019-01-27T03:37:41.213Z,90.30
2019-01-27T03:38:03.811Z,90.20
2019-01-27T03:38:26.940Z,90.20
2019-01-27T03:38:49.570Z,89.60
2019-01-27T03:39:12.131Z,89.40
2019-01-27T03:39:34.699Z,89.00
2019-01-27T03:39:57.470Z,89.00
2019-01-27T03:40:20.225Z,89.10
2019-01-27T03:40:42.807Z,89.30
2019-01-27T03:41:05.449Z,89.40
2019-01-27T03:41:30.944Z,89.80
2019-01-27T03:41:53.689Z,89.90
2019-01-27T03:42:16.420Z,89.70
2019-01-27T03:42:39.009Z,89.40
2019-01-27T03:43:01.616Z,89.40
2019-01-27T03:43:24.312Z,89.20
2019-01-27T03:43:46.969Z,89.30
2019-01-27T03:44:09.651Z,89.30
2019-01-27T03:44:32.410Z,89.40
2019-01-27T03:44:55.070Z,89.30
2019-01-27T03:45:17.690Z,89.70
2019-01-27T03:45:40.811Z,89.60
2019-01-27T03:46:03.339Z,89.50
2019-01-27T03:46:26.348Z,89.90
2019-01-27T03:46:48.949Z,89.50
2019-01-27T03:47:11.597Z,89.40
2019-01-27T03:47:34.191Z,89.40
2019-01-27T03:47:56.890Z,89.40
2019-01-27T03:48:19.849Z,89.70
2019-01-27T03:48:42.371Z,89.50
2019-01-27T03:49:04.950Z,89.20
2019-01-27T03:49:27.510Z,88.90
2019-01-27T03:49:50.290Z,89.30
2019-01-27T03:50:12.911Z,89.60
2019-01-27T03:50:35.460Z,89.60
2019-01-27T03:50:58.130Z,89.50
2019-01-27T03:51:20.711Z,89.60
2019-01-27T03:51:43.290Z,89.60
2019-01-27T03:52:07.829Z,89.80
2019-01-27T03:52:30.271Z,89.60
2019-01-27T03:52:52.970Z,89.40
2019-01-27T03:53:15.609Z,89.30
2019-01-27T03:53:38.170Z,89.50
2019-01-27T03:54:02.548Z,89.40
2019-01-27T03:54:25.190Z,89.40
2019-01-27T03:54:47.752Z,89.30
2019-01-27T03:55:10.350Z,89.20
2019-01-27T03:55:33.097Z,89.10
2019-01-27T03:55:55.829Z,89.00
2019-01-27T03:56:18.517Z,88.90
2019-01-27T03:56:41.069Z,88.80
2019-01-27T03:57:03.689Z,88.90
2019-01-27T03:57:26.189Z,88.90
2019-01-27T03:57:49.183Z,88.90
2019-01-27T03:58:12.089Z,88.80
2019-01-27T03:58:34.690Z,88.70
2019-01-27T03:58:57.270Z,88.90
2019-01-27T03:59:19.995Z,88.80
2019-01-27T03:59:42.549Z,89.10
2019-01-27T04:01:25.366Z,89.10
2019-01-27T04:01:48.629Z,89.80
2019-01-27T04:02:11.375Z,88.90
2019-01-27T04:02:34.051Z,88.80
2019-01-27T04:02:56.650Z,88.90
2019-01-27T04:03:19.389Z,88.80
2019-01-27T04:03:42.146Z,88.80
2019-01-27T04:04:04.710Z,88.80
2019-01-27T04:04:27.717Z,88.80
2019-01-27T04:04:50.250Z,88.80
2019-01-27T04:05:12.849Z,88.90
2019-01-27T04:05:35.428Z,88.90
2019-01-27T04:05:58.125Z,88.80
2019-01-27T04:06:22.449Z,89.00
2019-01-27T04:06:45.130Z,89.10
2019-01-27T04:07:07.868Z,89.10
2019-01-27T04:07:30.730Z,88.80
2019-01-27T04:07:53.333Z,88.90
2019-01-27T04:08:15.930Z,89.10
2019-01-27T04:08:38.571Z,89.40
2019-01-27T04:09:01.070Z,89.40
2019-01-27T04:09:23.591Z,89.30
2019-01-27T04:09:46.151Z,89.30
2019-01-27T04:10:08.689Z,88.90
2019-01-27T04:10:33.034Z,88.80
2019-01-27T04:10:55.672Z,88.80
2019-01-27T04:11:18.211Z,88.80
2019-01-27T04:11:40.833Z,88.40
2019-01-27T04:12:03.344Z,88.30
2019-01-27T04:12:25.968Z,88.20
2019-01-27T04:12:48.611Z,88.30
2019-01-27T04:13:11.190Z,89.00
2019-01-27T04:13:33.815Z,88.40
2019-01-27T04:13:56.650Z,88.70
2019-01-27T04:14:19.230Z,88.80
2019-01-27T04:14:41.769Z,89.00
2019-01-27T04:15:04.330Z,89.80
2019-01-27T04:15:26.890Z,89.90
2019-01-27T04:15:49.372Z,90.00
2019-01-27T04:16:12.031Z,89.80
2019-01-27T04:16:34.591Z,89.50
2019-01-27T04:16:57.130Z,89.40
2019-01-27T04:17:19.850Z,89.90
2019-01-27T04:17:42.531Z,89.90
2019-01-27T04:18:05.170Z,90.00
2019-01-27T04:18:27.730Z,90.10
2019-01-27T04:18:50.331Z,90.00
2019-01-27T04:19:12.874Z,90.00
2019-01-27T04:19:35.451Z,89.90
2019-01-27T04:19:58.091Z,89.70
2019-01-27T04:20:21.032Z,89.60
2019-01-27T04:20:43.990Z,89.90
2019-01-27T04:21:06.830Z,89.70
2019-01-27T04:21:29.430Z,89.50
2019-01-27T04:21:51.970Z,89.70
2019-01-27T04:22:14.779Z,89.20
2019-01-27T04:22:37.830Z,89.40
2019-01-27T04:23:00.592Z,89.40
2019-01-27T04:23:23.266Z,89.30
2019-01-27T04:23:45.870Z,89.30
2019-01-27T04:24:08.610Z,89.20
2019-01-27T04:24:31.252Z,89.20
2019-01-27T04:24:53.792Z,89.00
2019-01-27T04:25:16.859Z,88.80
2019-01-27T04:25:41.071Z,88.70
2019-01-27T04:26:03.525Z,88.40
2019-01-27T04:26:26.931Z,88.30
2019-01-27T04:26:49.632Z,88.10
2019-01-27T04:27:12.384Z,88.20
2019-01-27T04:27:35.030Z,88.00
2019-01-27T04:27:58.104Z,87.80
2019-01-27T04:28:20.994Z,87.80
2019-01-27T04:28:43.893Z,87.80
2019-01-27T04:29:06.559Z,87.70
2019-01-27T04:29:29.610Z,87.80
2019-01-27T04:29:52.270Z,88.10
2019-01-27T04:30:15.071Z,88.20
2019-01-27T04:30:37.819Z,88.00
2019-01-27T04:31:00.990Z,88.10
2019-01-27T04:31:23.669Z,88.00
2019-01-27T04:31:46.378Z,87.90
2019-01-27T04:32:08.996Z,88.00
2019-01-27T04:32:32.016Z,88.10
2019-01-27T04:32:54.590Z,88.20
2019-01-27T04:33:17.193Z,88.40
2019-01-27T04:33:40.331Z,88.30
2019-01-27T04:34:02.837Z,88.40
2019-01-27T04:34:25.512Z,88.80
2019-01-27T04:34:48.044Z,89.00
2019-01-27T04:35:10.778Z,88.80
2019-01-27T04:35:33.472Z,88.80
2019-01-27T04:35:56.032Z,88.50
2019-01-27T04:36:18.588Z,88.80
2019-01-27T04:36:41.231Z,89.00
2019-01-27T04:37:03.772Z,89.30
2019-01-27T04:37:26.393Z,89.60
2019-01-27T04:37:49.109Z,89.80
2019-01-27T04:38:11.837Z,90.20
2019-01-27T04:38:34.378Z,89.80
2019-01-27T04:38:57.052Z,89.80
2019-01-27T04:39:19.632Z,89.90
2019-01-27T04:39:42.352Z,89.90
2019-01-27T04:40:04.879Z,89.70
2019-01-27T04:40:27.518Z,89.50
2019-01-27T04:40:50.210Z,89.50
2019-01-27T04:41:12.912Z,89.10
2019-01-27T04:41:35.954Z,88.70
2019-01-27T04:41:58.719Z,88.60
2019-01-27T04:42:21.672Z,88.60
2019-01-27T04:42:44.195Z,88.70
2019-01-27T04:43:06.947Z,88.60
2019-01-27T04:43:29.610Z,88.70
2019-01-27T04:43:52.172Z,88.90
2019-01-27T04:44:15.314Z,88.80
2019-01-27T04:44:37.912Z,88.80
2019-01-27T04:45:00.437Z,89.50
2019-01-27T04:45:36.892Z,89.70
2019-01-27T04:45:59.471Z,89.80
2019-01-27T04:46:22.200Z,89.90
2019-01-27T04:46:44.943Z,89.00
2019-01-27T04:47:07.644Z,88.90
2019-01-27T04:47:30.432Z,89.40
2019-01-27T04:47:53.031Z,90.00
2019-01-27T04:48:15.634Z,90.00
2019-01-27T04:48:38.272Z,89.00
2019-01-27T04:49:00.867Z,89.00
2019-01-27T04:49:23.650Z,89.20
2019-01-27T04:49:46.197Z,89.20
2019-01-27T04:50:08.678Z,89.00
2019-01-27T04:50:31.427Z,89.00
2019-01-27T04:50:54.178Z,88.80
2019-01-27T04:51:16.912Z,88.60
2019-01-27T04:51:39.503Z,88.80
2019-01-27T04:52:02.211Z,88.50
2019-01-27T04:52:24.753Z,88.40
2019-01-27T04:52:47.372Z,88.20
2019-01-27T04:53:10.074Z,88.20
2019-01-27T04:53:33.054Z,88.10
2019-01-27T04:53:55.874Z,88.10
2019-01-27T04:54:18.512Z,88.10
2019-01-27T04:54:41.162Z,88.10
2019-01-27T04:55:03.697Z,88.00
2019-01-27T04:55:26.434Z,87.80